createdAt,value
2022-11-25T01:49:56.284Z,4.57
2022-11-25T01:52:45.287Z,4.70
2022-11-25T01:55:33.869Z,4.53
2022-11-25T01:58:21.695Z,4.43
2022-11-25T02:03:54.868Z,4.50
2022-11-25T02:06:41.411Z,4.50
2022-11-25T02:09:41.994Z,4.23
2022-11-25T02:15:08.291Z,3.80
2022-11-25T02:24:38.029Z,4.53
2022-11-25T02:27:22.565Z,4.13
2022-11-25T02:35:47.768Z,4.10
2022-11-25T02:38:34.105Z,4.27
2022-11-25T02:41:43.036Z,4.40
2022-11-25T02:44:21.108Z,4.20
2022-11-25T02:49:48.978Z,4.10
2022-11-25T02:52:23.028Z,4.20
2022-11-25T02:55:10.709Z,4.40
2022-11-25T02:57:45.477Z,4.63
2022-11-25T03:00:27.656Z,4.17
2022-11-25T03:08:37.383Z,4.60
2022-11-25T03:16:44.455Z,4.57
2022-11-25T03:22:04.504Z,4.13
2022-11-25T03:27:15.311Z,4.03
2022-11-25T03:29:42.148Z,5.15
2022-11-25T03:32:09.811Z,5.13
2022-11-25T03:34:37.455Z,4.63
2022-11-25T03:37:04.621Z,4.20
2022-11-25T03:39:31.570Z,4.27
2022-11-25T03:41:58.556Z,4.73
2022-11-25T03:44:25.642Z,4.40
2022-11-25T03:46:52.916Z,4.30
2022-11-25T03:49:21.793Z,4.50
2022-11-25T03:51:49.614Z,5.07
2022-11-25T03:54:16.670Z,4.37
2022-11-25T03:56:43.826Z,5.10
2022-11-25T03:59:10.883Z,4.47
2022-11-25T04:01:42.893Z,4.23
2022-11-25T04:04:11.329Z,4.63
2022-11-25T04:06:40.878Z,4.20
2022-11-25T04:09:09.272Z,4.70
2022-11-25T04:11:54.930Z,4.97
2022-11-25T04:14:21.967Z,4.73
2022-11-25T04:16:49.447Z,3.90
2022-11-25T04:19:16.521Z,5.50
2022-11-25T04:21:46.782Z,5.47
2022-11-25T04:24:16.535Z,4.70
2022-11-25T04:26:43.551Z,4.90
2022-11-25T04:29:10.734Z,5.50
2022-11-25T04:31:38.320Z,4.53
2022-11-25T04:34:05.847Z,4.60
2022-11-25T04:36:33.268Z,5.10
2022-11-25T04:39:00.688Z,4.30
2022-11-25T04:41:30.969Z,4.97
2022-11-25T04:44:00.454Z,4.60
2022-11-25T04:46:34.429Z,5.20
2022-11-25T04:49:01.474Z,5.20
2022-11-25T04:51:32.182Z,5.80
2022-11-25T04:53:59.288Z,5.00
2022-11-25T04:56:26.252Z,4.57
2022-11-25T04:59:11.830Z,5.80
2022-11-25T05:04:20.937Z,5.07
2022-11-25T05:06:48.415Z,5.37
2022-11-25T05:09:15.429Z,5.30
2022-11-25T05:11:42.218Z,5.70
2022-11-25T05:14:09.327Z,5.20
2022-11-25T05:16:36.545Z,5.63
2022-11-25T05:19:03.766Z,6.23
2022-11-25T05:21:30.906Z,6.13
2022-11-25T05:23:57.952Z,5.47
2022-11-25T05:26:25.042Z,5.80
2022-11-25T05:28:52.286Z,5.60
2022-11-25T05:31:19.272Z,5.17
2022-11-25T05:33:46.269Z,5.60
2022-11-25T05:36:13.166Z,5.10
2022-11-25T05:38:40.106Z,6.47
2022-11-25T05:41:08.075Z,5.63
2022-11-25T05:43:37.018Z,5.83
2022-11-25T05:46:07.733Z,6.23
2022-11-25T05:48:35.383Z,6.50
2022-11-25T05:51:03.814Z,6.33
2022-11-25T05:53:31.404Z,5.57
2022-11-25T05:56:00.865Z,6.13
2022-11-25T05:58:29.428Z,5.73
2022-11-25T06:00:57.260Z,6.30
2022-11-25T06:03:30.093Z,7.17
2022-11-25T06:05:58.643Z,6.57
2022-11-25T06:08:26.842Z,6.30
2022-11-25T06:10:54.532Z,6.20
2022-11-25T06:13:22.318Z,6.70
2022-11-25T06:15:52.039Z,7.80
2022-11-25T06:18:19.449Z,6.73
2022-11-25T06:20:57.084Z,7.43
2022-11-25T06:23:25.317Z,7.00
2022-11-25T06:25:52.505Z,6.60
2022-11-25T06:28:19.356Z,6.67
2022-11-25T06:30:46.480Z,6.97
2022-11-25T06:33:13.449Z,7.73
2022-11-25T06:35:40.381Z,8.43
2022-11-25T06:38:07.350Z,7.90
2022-11-25T06:40:34.491Z,8.30
2022-11-25T06:43:01.332Z,7.50
2022-11-25T06:45:28.290Z,9.53
2022-11-25T06:47:55.257Z,8.17
2022-11-25T06:50:22.190Z,7.93
2022-11-25T06:52:52.204Z,8.60
2022-11-25T06:55:19.203Z,7.90
2022-11-25T06:57:46.045Z,7.10
2022-11-25T07:00:13.429Z,7.40
2022-11-25T07:02:45.303Z,6.93
2022-11-25T07:05:15.042Z,7.00
2022-11-25T07:07:41.912Z,7.03
2022-11-25T07:10:09.254Z,7.37
2022-11-25T07:12:36.192Z,7.80
2022-11-25T07:15:10.806Z,7.03
2022-11-25T07:17:37.740Z,7.40
2022-11-25T07:20:05.227Z,7.53
2022-11-25T07:22:32.095Z,7.73
2022-11-25T07:24:59.007Z,7.60
2022-11-25T07:27:25.784Z,8.03
2022-11-25T07:30:29.020Z,7.73
2022-11-25T07:32:40.103Z,7.17
2022-11-25T07:35:07.544Z,8.20
2022-11-25T07:37:34.394Z,8.70
2022-11-25T07:40:01.258Z,7.77
2022-11-25T07:42:28.136Z,8.43
2022-11-25T07:44:54.979Z,7.90
2022-11-25T07:47:21.925Z,7.73
2022-11-25T07:49:48.753Z,8.23
2022-11-25T07:55:18.659Z,8.00
2022-11-25T07:57:45.609Z,8.43
2022-11-25T08:00:14.622Z,7.67
2022-11-25T08:02:41.677Z,8.43
2022-11-25T08:05:09.378Z,8.87
2022-11-25T08:07:36.859Z,9.30
2022-11-25T08:10:04.530Z,9.33
2022-11-25T08:12:32.952Z,8.83
2022-11-25T08:14:59.865Z,8.27
2022-11-25T08:17:26.840Z,8.37
2022-11-25T08:19:54.005Z,7.93
2022-11-25T08:22:21.185Z,8.40
2022-11-25T08:24:48.527Z,9.30
2022-11-25T08:27:15.699Z,10.20
2022-11-25T08:29:43.010Z,9.50
2022-11-25T08:32:11.986Z,9.70
2022-11-25T08:34:39.203Z,9.93
2022-11-25T08:37:06.242Z,12.68
2022-11-25T08:39:51.820Z,13.57
2022-11-25T08:42:19.680Z,13.23
2022-11-25T08:44:52.003Z,12.95
2022-11-25T08:47:18.993Z,12.75
2022-11-25T08:49:46.158Z,13.33
2022-11-25T08:52:13.457Z,12.30
2022-11-25T08:54:42.367Z,12.02
2022-11-25T08:57:09.912Z,11.90
2022-11-25T08:59:41.621Z,12.45
2022-11-25T09:02:12.424Z,12.38
2022-11-25T09:04:41.669Z,11.07
2022-11-25T09:07:09.184Z,12.15
2022-11-25T09:09:38.468Z,11.05
2022-11-25T09:12:09.449Z,11.43
2022-11-25T09:14:37.076Z,13.57
2022-11-25T09:17:11.819Z,12.63
2022-11-25T09:19:42.344Z,12.88
2022-11-25T09:22:09.924Z,12.55
2022-11-25T09:24:41.986Z,10.90
2022-11-25T09:32:43.467Z,9.50
2022-11-25T09:35:10.574Z,9.80
2022-11-25T09:37:37.664Z,9.10
2022-11-25T09:40:07.229Z,8.43
2022-11-25T09:43:07.983Z,8.73
2022-11-25T09:46:14.072Z,8.20
2022-11-25T09:49:07.059Z,8.47
2022-11-25T09:52:00.616Z,9.05
2022-11-25T09:54:34.688Z,9.70
2022-11-25T09:57:15.840Z,9.07
2022-11-25T09:59:59.626Z,9.38
2022-11-25T10:02:39.422Z,9.57
2022-11-25T10:05:21.138Z,8.80
2022-11-25T10:07:53.920Z,8.35
2022-11-25T10:10:30.918Z,8.45
2022-11-25T10:12:59.340Z,7.10
2022-11-25T10:15:44.765Z,6.80
2022-11-25T10:18:31.370Z,7.18
2022-11-25T10:20:58.338Z,5.85
2022-11-25T10:23:32.025Z,6.00
2022-11-25T10:26:12.962Z,5.67
2022-11-25T10:28:45.033Z,5.32
2022-11-25T10:31:22.775Z,4.45
2022-11-25T10:33:58.407Z,4.53
2022-11-25T10:36:34.847Z,4.85
2022-11-25T10:39:04.747Z,4.95
2022-11-25T10:41:37.240Z,5.05
2022-11-25T10:44:10.217Z,5.03
2022-11-25T10:47:12.325Z,4.40
2022-11-25T10:49:40.705Z,4.35
2022-11-25T10:52:13.530Z,4.50
2022-11-25T10:54:41.221Z,5.28
2022-11-25T10:57:20.634Z,4.50
2022-11-25T10:59:59.234Z,4.72
2022-11-25T11:02:40.178Z,4.47
2022-11-25T11:05:10.726Z,4.63
2022-11-25T11:07:40.923Z,4.10
2022-11-25T11:10:17.666Z,4.00
2022-11-25T11:12:54.594Z,4.45
2022-11-25T11:15:35.039Z,4.32
2022-11-25T11:18:35.278Z,4.20
2022-11-25T11:21:02.636Z,4.25
2022-11-25T11:23:30.117Z,3.67
2022-11-25T11:26:00.137Z,3.72
2022-11-25T11:28:38.718Z,3.58
2022-11-25T11:31:19.378Z,3.50
2022-11-25T11:33:51.943Z,3.22
2022-11-25T11:36:39.279Z,3.78
2022-11-25T11:39:44.431Z,3.45
2022-11-25T11:42:20.043Z,3.67
2022-11-25T11:44:58.908Z,3.43
2022-11-25T11:47:42.354Z,3.40
2022-11-25T11:50:18.145Z,3.85
2022-11-25T11:53:05.228Z,3.90
2022-11-25T11:56:11.758Z,3.37
2022-11-25T11:58:37.134Z,4.05
2022-11-25T12:01:32.138Z,3.53
2022-11-25T12:04:08.718Z,3.80
2022-11-25T12:06:38.443Z,3.90
2022-11-25T12:09:12.665Z,3.53
2022-11-25T12:11:46.026Z,3.70
2022-11-25T12:14:45.623Z,4.10
2022-11-25T12:17:26.950Z,3.63
2022-11-25T12:20:03.807Z,3.88
2022-11-25T12:22:36.785Z,3.65
2022-11-25T12:25:25.784Z,3.65
2022-11-25T12:28:01.680Z,3.50
2022-11-25T12:31:00.558Z,3.63
2022-11-25T12:34:06.087Z,3.55
2022-11-25T12:36:45.460Z,4.00
2022-11-25T12:39:28.879Z,3.97
2022-11-25T12:42:01.237Z,3.92
2022-11-25T12:44:44.764Z,3.67
2022-11-25T12:47:12.287Z,3.63
2022-11-25T12:49:51.106Z,3.97
2022-11-25T12:52:36.971Z,4.15
2022-11-25T12:55:26.003Z,4.10
2022-11-25T12:58:05.016Z,3.72
2022-11-25T13:01:04.223Z,4.00
2022-11-25T13:03:52.512Z,3.80
2022-11-25T13:06:49.104Z,3.53
2022-11-25T13:09:53.999Z,4.00
2022-11-25T13:12:45.469Z,4.05
2022-11-25T13:15:44.963Z,4.28
2022-11-25T13:18:19.855Z,4.20
2022-11-25T13:20:55.677Z,4.70
2022-11-25T13:23:30.675Z,4.13
2022-11-25T13:26:37.976Z,4.28
2022-11-25T13:29:27.605Z,4.28
2022-11-25T13:32:02.801Z,4.72
2022-11-25T13:34:32.232Z,4.50
2022-11-25T13:37:23.503Z,4.60
2022-11-25T13:40:10.318Z,5.07
2022-11-25T13:42:44.086Z,4.90
2022-11-25T13:45:25.565Z,5.10
2022-11-25T13:47:54.083Z,5.10
2022-11-25T13:50:36.844Z,5.55
2022-11-25T13:53:23.731Z,5.28
2022-11-25T13:55:52.037Z,5.60
2022-11-25T13:58:22.633Z,5.75
2022-11-25T14:00:58.645Z,4.68
2022-11-25T14:03:25.643Z,4.88
2022-11-25T14:06:01.290Z,4.67
2022-11-25T14:08:44.364Z,5.20
2022-11-25T14:11:11.151Z,5.30
2022-11-25T14:13:59.555Z,5.20
2022-11-25T14:16:48.857Z,5.13
2022-11-25T14:22:52.463Z,5.28
2022-11-25T14:25:30.312Z,5.32
2022-11-25T14:28:21.815Z,5.20
2022-11-25T14:30:54.856Z,5.65
2022-11-25T14:33:31.620Z,5.10
2022-11-25T14:36:22.471Z,4.90
2022-11-25T14:39:06.414Z,4.93
2022-11-25T14:42:03.860Z,5.20
2022-11-25T14:44:42.407Z,4.80
2022-11-25T14:47:09.258Z,4.43
2022-11-25T14:49:49.145Z,5.10
2022-11-25T14:52:28.456Z,5.30
2022-11-25T14:54:57.704Z,4.80
2022-11-25T14:57:28.401Z,4.97
2022-11-25T14:59:58.576Z,5.43
2022-11-25T15:02:30.388Z,4.70
2022-11-25T15:05:21.322Z,7.60
2022-11-25T15:07:57.792Z,8.10
2022-11-25T15:10:44.327Z,5.90
2022-11-25T15:13:30.709Z,5.45
2022-11-25T15:16:06.478Z,8.50
2022-11-25T15:18:35.054Z,9.13
2022-11-25T15:21:03.129Z,10.77
2022-11-25T15:23:37.579Z,7.37
2022-11-25T15:26:15.295Z,8.13
2022-11-25T15:28:46.131Z,11.37
2022-11-25T15:31:19.932Z,7.80
2022-11-25T15:33:54.346Z,6.40
2022-11-25T15:36:23.967Z,4.93
2022-11-25T15:38:51.500Z,7.20
2022-11-25T17:12:48.941Z,7.47
2022-11-25T17:15:36.612Z,8.00
2022-11-25T17:18:10.997Z,8.37
2022-11-25T17:20:47.183Z,7.73
2022-11-25T17:23:27.383Z,7.60
